WEON weather

Weona
Weona, Arkansas, United States

Public forecast

Using degrees Fahrenheit for public forecast. Weather courtesy of forecast.io.

Closest aviation weather report (METAR) to Weona

Closest report is Jonesboro Municipal Airport, 17.7 nm (32.7 km) N. Retrieved 2019/12/09 07:53 UTC (7 minutes ago):

KJBR 090753Z AUTO 18006KT 9SM OVC024 12/09 A2979 RMK AO2 SLP086 T01170089

Closest aviation forecast (TAF) to Weona

Closest forecast is Jonesboro Municipal Airport, 17.7 nm (32.7 km) N. Retrieved 2019/12/09 06:42 UTC (1 hour ago):

TAF KJBR 090541Z 0906/1006 18009KT P6SM BKN025 OVC150 WS020/20045KT FM090800 19012KT P6SM BKN015 OVC050 WS020/22055KT FM091300 21017G25KT P6SM VCSH OVC009 WS020/22055KT FM091700 22018G24KT P6SM VCSH BKN018 FM092000 23010G19KT P6SM OVC050 FM100000 28010KT P6SM OVC070 FM100400 32012G18KT P6SM BKN040